createdAt,value
2023-05-04T00:03:09.434Z,46.25
2023-05-04T00:08:16.590Z,46.13
2023-05-04T00:13:23.810Z,46.02
2023-05-04T00:18:31.081Z,45.89
2023-05-04T00:23:38.360Z,45.81
2023-05-04T00:28:45.557Z,45.82
2023-05-04T00:33:52.837Z,45.78
2023-05-04T00:39:00.137Z,45.70
2023-05-04T00:44:07.311Z,45.67
2023-05-04T00:49:14.471Z,45.65
2023-05-04T00:54:21.685Z,45.67
2023-05-04T00:59:28.851Z,45.59
2023-05-04T01:04:36.052Z,45.65
2023-05-04T01:09:43.292Z,45.65
2023-05-04T01:14:50.520Z,45.69
2023-05-04T01:19:57.693Z,45.65
2023-05-04T01:25:04.866Z,45.56
2023-05-04T01:30:12.166Z,45.53
2023-05-04T01:35:19.236Z,45.53
2023-05-04T01:40:26.416Z,45.51
2023-05-04T01:45:33.650Z,45.49
2023-05-04T01:50:40.915Z,45.59
2023-05-04T01:55:48.175Z,45.71
2023-05-04T02:00:55.401Z,45.64
2023-05-04T02:06:02.541Z,45.65
2023-05-04T02:11:09.826Z,45.62
2023-05-04T02:16:17.263Z,45.46
2023-05-04T02:21:24.425Z,45.34
2023-05-04T02:26:31.703Z,45.31
2023-05-04T02:31:38.941Z,45.33
2023-05-04T02:36:46.079Z,45.32
2023-05-04T02:41:53.346Z,45.34
2023-05-04T02:47:00.744Z,45.21
2023-05-04T02:52:11.304Z,45.30
2023-05-04T02:57:18.649Z,45.19
2023-05-04T03:02:26.124Z,45.19
2023-05-04T03:07:33.284Z,45.17
2023-05-04T03:12:40.658Z,45.06
2023-05-04T03:17:47.990Z,45.03
2023-05-04T03:22:55.281Z,45.05
2023-05-04T03:28:02.787Z,44.99
2023-05-04T03:33:10.254Z,44.94
2023-05-04T03:38:17.451Z,44.98
2023-05-04T03:43:25.550Z,45.12
2023-05-04T03:48:33.159Z,45.08
2023-05-04T03:53:41.346Z,45.11
2023-05-04T03:58:47.955Z,45.07
2023-05-04T04:03:55.537Z,45.14
2023-05-04T04:09:02.593Z,45.04
2023-05-04T04:14:10.148Z,44.99
2023-05-04T04:19:18.024Z,45.04
2023-05-04T04:24:25.268Z,45.18
2023-05-04T04:29:39.226Z,44.98
2023-05-04T04:34:54.178Z,45.04
2023-05-04T04:39:59.539Z,44.87
2023-05-04T04:45:11.655Z,44.79
2023-05-04T04:50:20.020Z,44.83
2023-05-04T04:55:27.368Z,44.95
2023-05-04T05:00:34.797Z,44.86
2023-05-04T05:05:48.406Z,44.96
2023-05-04T05:10:55.697Z,45.08
2023-05-04T05:16:03.103Z,45.15
2023-05-04T05:21:10.457Z,45.17
2023-05-04T05:26:18.366Z,45.21
2023-05-04T05:31:25.895Z,45.01
2023-05-04T05:36:33.272Z,45.26
2023-05-04T05:41:40.796Z,45.34
2023-05-04T05:46:48.148Z,45.43
2023-05-04T05:51:55.541Z,45.43
2023-05-04T05:57:02.968Z,45.51
2023-05-04T06:02:10.244Z,45.59
2023-05-04T06:07:17.538Z,45.72
2023-05-04T06:12:24.821Z,45.81
2023-05-04T06:17:32.133Z,45.89
2023-05-04T06:22:39.371Z,46.22
2023-05-04T06:27:46.673Z,46.14
2023-05-04T06:32:54.366Z,45.95
2023-05-04T06:38:02.292Z,46.36
2023-05-04T06:43:09.017Z,45.88
2023-05-04T06:48:16.296Z,45.59
2023-05-04T06:53:23.581Z,45.51
2023-05-04T06:58:30.927Z,45.46
2023-05-04T07:03:38.326Z,45.31
2023-05-04T07:08:45.539Z,45.17
2023-05-04T07:13:52.733Z,45.13
2023-05-04T07:18:59.980Z,45.05
2023-05-04T07:24:07.291Z,45.20
2023-05-04T07:29:14.455Z,45.23
2023-05-04T07:34:27.411Z,45.98
2023-05-04T07:39:28.993Z,46.27
2023-05-04T07:44:35.975Z,45.78
2023-05-04T07:49:47.224Z,46.91
2023-05-04T07:54:57.239Z,46.04
2023-05-04T08:00:04.622Z,45.85
2023-05-04T08:05:11.653Z,45.82
2023-05-04T08:10:18.937Z,46.22
2023-05-04T08:15:26.104Z,47.39
2023-05-04T08:20:33.309Z,46.62
2023-05-04T08:25:40.602Z,47.23
2023-05-04T08:30:47.665Z,47.19
2023-05-04T08:35:54.857Z,48.10
2023-05-04T08:41:02.337Z,48.80
2023-05-04T08:46:09.484Z,48.26
2023-05-04T08:51:16.628Z,48.13
2023-05-04T08:56:23.827Z,49.06
2023-05-04T09:01:31.116Z,48.17
2023-05-04T09:06:38.168Z,47.74
2023-05-04T09:11:45.377Z,48.04
2023-05-04T09:16:52.576Z,47.94
2023-05-04T09:21:59.704Z,47.97
2023-05-04T09:27:06.903Z,48.33
2023-05-04T09:32:14.093Z,48.17
2023-05-04T09:37:21.289Z,48.28
2023-05-04T09:42:28.485Z,47.33
2023-05-04T09:47:35.731Z,46.93
2023-05-04T09:52:42.894Z,48.34
2023-05-04T09:57:50.223Z,49.18
2023-05-04T10:02:57.317Z,47.94
2023-05-04T10:08:04.514Z,47.79
2023-05-04T10:13:12.042Z,47.78
2023-05-04T10:18:18.941Z,48.61
2023-05-04T10:23:26.143Z,48.08
2023-05-04T10:28:33.399Z,48.90
2023-05-04T10:33:40.558Z,48.00
2023-05-04T10:38:47.813Z,48.48
2023-05-04T10:43:55.106Z,48.36
2023-05-04T10:49:02.276Z,48.16
2023-05-04T10:54:09.466Z,48.47
2023-05-04T10:59:16.706Z,48.67
2023-05-04T11:04:25.449Z,48.73
2023-05-04T11:09:32.636Z,48.38
2023-05-04T11:14:40.962Z,48.37
2023-05-04T11:19:48.281Z,48.67
2023-05-04T11:25:33.859Z,47.67
2023-05-04T11:31:21.187Z,48.27
2023-05-04T11:37:18.775Z,48.46
2023-05-04T11:43:01.624Z,48.23
2023-05-04T11:50:37.907Z,47.98
2023-05-04T11:54:05.013Z,47.85
2023-05-04T11:59:53.810Z,47.31
2023-05-04T12:05:31.232Z,47.16
2023-05-04T12:10:20.478Z,46.94
2023-05-04T12:16:02.994Z,47.26
2023-05-04T12:21:45.569Z,46.88
2023-05-04T12:29:44.787Z,46.88
2023-05-04T12:35:29.519Z,47.07
2023-05-04T12:41:18.247Z,46.91
2023-05-04T12:46:31.865Z,46.94
2023-05-04T12:52:29.550Z,46.82
2023-05-04T12:58:17.680Z,46.80
2023-05-04T13:04:00.228Z,46.52
2023-05-04T13:09:22.884Z,46.44
2023-05-04T13:15:20.718Z,46.39
2023-05-04T13:23:05.619Z,46.38
2023-05-04T13:26:37.008Z,46.36
2023-05-04T13:32:03.323Z,46.27
2023-05-04T13:38:04.132Z,46.14
2023-05-04T13:43:46.552Z,45.98
2023-05-04T13:49:15.039Z,45.91
2023-05-04T13:54:55.344Z,45.93
2023-05-04T14:00:37.755Z,45.82
2023-05-04T14:06:20.816Z,45.71
2023-05-04T14:11:39.576Z,45.54
2023-05-04T14:17:08.534Z,45.38
2023-05-04T14:22:03.490Z,45.25
2023-05-04T14:27:28.657Z,45.17
2023-05-04T14:32:24.006Z,45.08
2023-05-04T14:37:39.498Z,45.08
2023-05-04T14:42:59.994Z,45.11
2023-05-04T14:48:13.330Z,45.12
2023-05-04T14:53:20.931Z,45.11
2023-05-04T14:58:33.423Z,45.16
2023-05-04T15:05:24.845Z,45.18
2023-05-04T15:09:18.370Z,45.18
2023-05-04T15:14:37.982Z,45.21
2023-05-04T15:20:21.126Z,45.24
2023-05-04T15:26:06.987Z,45.24
2023-05-04T15:31:17.963Z,45.32
2023-05-04T15:36:49.108Z,45.32
2023-05-04T15:42:05.905Z,45.35
2023-05-04T15:47:00.411Z,45.36
2023-05-04T15:52:12.749Z,45.40
2023-05-04T15:58:17.066Z,45.43
2023-05-04T16:04:09.404Z,45.47
2023-05-04T16:08:32.047Z,45.46
2023-05-04T16:13:44.264Z,45.52
2023-05-04T16:19:07.892Z,45.50
2023-05-04T16:24:25.515Z,45.53
2023-05-04T16:29:30.456Z,45.56
2023-05-04T16:34:37.853Z,45.52
2023-05-04T16:39:45.271Z,45.55
2023-05-04T16:44:52.957Z,45.52
2023-05-04T16:50:11.275Z,45.50
2023-05-04T16:55:40.781Z,45.46
2023-05-04T17:01:25.876Z,45.49
2023-05-04T17:07:13.156Z,45.46
2023-05-04T17:12:26.459Z,45.45
2023-05-04T17:18:09.655Z,45.40
2023-05-04T17:27:36.807Z,45.42
2023-05-04T17:34:32.706Z,45.40
2023-05-04T17:41:00.190Z,45.34
2023-05-04T17:44:51.181Z,45.36
2023-05-04T17:50:03.481Z,45.65
2023-05-04T17:55:10.689Z,45.88
2023-05-04T18:00:17.895Z,45.66
2023-05-04T18:05:25.119Z,45.59
2023-05-04T18:10:32.370Z,45.57
2023-05-04T18:15:39.528Z,45.76
2023-05-04T18:20:46.743Z,45.73
2023-05-04T18:25:53.914Z,45.68
2023-05-04T18:31:01.146Z,45.71
2023-05-04T18:36:08.454Z,45.63
2023-05-04T18:41:16.062Z,47.62
2023-05-04T18:46:23.575Z,48.74
2023-05-04T18:51:30.795Z,48.50
2023-05-04T18:56:38.090Z,49.68
2023-05-04T19:01:45.634Z,48.65
2023-05-04T19:06:53.011Z,49.43
2023-05-04T19:12:00.180Z,49.87
2023-05-04T19:17:07.365Z,48.26
2023-05-04T19:22:14.671Z,47.80
2023-05-04T19:27:21.942Z,47.23
2023-05-04T19:32:29.236Z,46.76
2023-05-04T19:37:36.612Z,46.30
2023-05-04T19:42:43.798Z,46.59
2023-05-04T19:47:51.099Z,47.06
2023-05-04T19:52:58.437Z,46.81
2023-05-04T19:58:05.666Z,46.92
2023-05-04T20:03:13.341Z,46.17
2023-05-04T20:08:20.466Z,45.87
2023-05-04T20:13:27.698Z,45.59
2023-05-04T20:18:34.996Z,47.97
2023-05-04T20:23:42.306Z,47.57
2023-05-04T20:28:49.557Z,47.20
2023-05-04T20:33:56.920Z,46.35
2023-05-04T20:39:04.166Z,45.74
2023-05-04T20:44:11.443Z,45.56
2023-05-04T20:49:18.815Z,45.35
2023-05-04T20:54:26.095Z,45.23
2023-05-04T20:59:33.369Z,44.95
2023-05-04T21:04:40.678Z,45.27
2023-05-04T21:09:48.018Z,44.88
2023-05-04T21:14:55.231Z,45.22
2023-05-04T21:20:02.552Z,44.66
2023-05-04T21:25:09.760Z,44.59
2023-05-04T21:30:17.219Z,44.37
2023-05-04T21:35:24.491Z,44.43
2023-05-04T21:40:31.793Z,44.27
2023-05-04T21:45:39.020Z,44.21
2023-05-04T21:50:46.476Z,44.32
2023-05-04T21:55:53.763Z,44.23
2023-05-04T22:01:01.161Z,44.01
2023-05-04T22:06:08.428Z,43.94
2023-05-04T22:11:15.733Z,43.66
2023-05-04T22:16:58.259Z,43.55
2023-05-04T22:27:49.183Z,43.47
2023-05-04T22:33:22.830Z,43.42
2023-05-04T22:34:17.498Z,43.55
2023-05-04T22:38:30.553Z,43.43
2023-05-04T22:49:02.326Z,43.48
2023-05-04T22:54:47.598Z,43.45
2023-05-04T23:00:22.028Z,43.44
2023-05-04T23:06:05.537Z,43.48
2023-05-04T23:12:02.420Z,43.53
2023-05-04T23:17:10.139Z,43.60
2023-05-04T23:28:38.036Z,43.85
2023-05-04T23:34:29.365Z,43.92
2023-05-04T23:41:13.872Z,44.01
2023-05-04T23:52:03.398Z,44.01
2023-05-04T23:56:04.359Z,44.09
